CPX253 Details

Departure: Fort Worth Alliance Airport (KAFW)
Arrival: Chicago/Rockford International Airport (KRFD)
Route: TEX5 OKM J181 BAYLI J105 BDF


Current Weather Information
KAFW 251053Z 16013KT 10SM FEW022 OVC300 22/20 A2999 RMK AO2 SLP142 T02220200
KRFD 251054Z 20007KT 10SM SCT130 BKN170 19/16 A2988 RMK AO2 SLP115 T01940161